Time;durP1;ratioP1;P1;durP2;ratioP2;P2;SDS_P1;SDS_P2;PMS_P1;PMS_P2;Temp;Humidity;BMP_temperature;BMP_pressure;BME280_temperature;BME280_humidity;BME280_pressure;Samples;Min_cycle;Max_cycle;Signal;HPM_P1;HPM_P2
2022/10/29 00:01:27;;;;;;;1999.90;999.90;;;;;;;10.75;100.00;99026.00;5090193;28;20023;-75
2022/10/29 00:03:53;;;;;;;1999.90;999.90;;;;;;;10.72;100.00;99029.28;5094892;28;20043;-76
2022/10/29 00:06:18;;;;;;;1999.90;999.90;;;;;;;10.63;100.00;99025.44;5104563;28;20024;-76
2022/10/29 00:08:43;;;;;;;1999.90;999.90;;;;;;;10.58;100.00;99030.88;5101302;28;20444;-76
2022/10/29 00:11:17;;;;;;;1999.90;999.90;;;;;;;10.56;100.00;99035.78;5097681;28;20381;-75
2022/10/29 00:13:44;;;;;;;1999.90;999.90;;;;;;;10.55;100.00;99027.88;5107921;28;20059;-74
2022/10/29 00:16:15;;;;;;;1999.90;999.90;;;;;;;10.56;100.00;99029.50;5097178;28;20047;-75
2022/10/29 00:18:41;;;;;;;1999.90;999.90;;;;;;;10.54;100.00;99026.22;5101169;28;20092;-74
2022/10/29 00:21:09;;;;;;;1999.90;999.90;;;;;;;10.41;100.00;99027.53;5086894;28;20039;-75
2022/10/29 00:23:35;;;;;;;1999.90;999.90;;;;;;;10.50;100.00;99020.44;5094470;28;20027;-75
2022/10/29 00:26:01;;;;;;;1999.90;999.90;;;;;;;10.55;100.00;99030.59;5106661;28;20020;-75
2022/10/29 00:28:27;;;;;;;1999.90;999.90;;;;;;;10.56;100.00;99030.31;5099363;28;20011;-73
2022/10/29 00:30:52;;;;;;;1999.90;999.90;;;;;;;10.65;100.00;99023.22;5099307;28;20473;-73
2022/10/29 00:33:19;;;;;;;1999.90;999.90;;;;;;;10.65;100.00;99027.91;5106499;28;20023;-75
2022/10/29 00:35:58;;;;;;;1999.90;999.90;;;;;;;10.71;100.00;99027.63;5094209;28;20034;-74
2022/10/29 00:38:25;;;;;;;1999.90;999.90;;;;;;;10.71;100.00;99024.88;5085007;28;20028;-75
2022/10/29 00:40:51;;;;;;;1999.90;999.90;;;;;;;10.82;100.00;99028.47;5102677;28;20047;-75
2022/10/29 00:43:19;;;;;;;1999.90;999.90;;;;;;;10.86;100.00;99031.50;5095675;28;20059;-75
2022/10/29 00:46:07;;;;;;;1999.90;999.90;;;;;;;10.80;100.00;99018.91;5088959;28;20385;-74
2022/10/29 00:48:36;;;;;;;1999.90;999.90;;;;;;;10.88;100.00;99034.78;5099390;28;20043;-75
2022/10/29 00:51:05;;;;;;;1999.90;999.90;;;;;;;10.91;100.00;99029.59;5079551;28;20020;-73
2022/10/29 00:53:36;;;;;;;1999.90;999.90;;;;;;;10.90;100.00;99024.41;5081601;28;20118;-74
2022/10/29 00:56:01;;;;;;;1999.90;999.90;;;;;;;10.90;100.00;99025.19;5106166;28;20063;-74
2022/10/29 00:58:28;;;;;;;1999.90;999.90;;;;;;;10.84;100.00;99026.28;5098779;28;20511;-75
2022/10/29 01:00:53;;;;;;;1999.90;999.90;;;;;;;10.86;100.00;99015.09;5098685;28;20492;-74
2022/10/29 01:03:19;;;;;;;1999.90;999.90;;;;;;;10.85;100.00;99011.50;5105982;28;20040;-75
2022/10/29 01:05:45;;;;;;;1999.90;999.90;;;;;;;10.88;100.00;99015.63;5076134;28;20112;-75
2022/10/29 01:08:12;;;;;;;1999.90;999.90;;;;;;;10.76;100.00;99007.66;5086327;28;20024;-75
2022/10/29 01:10:43;;;;;;;1999.90;999.90;;;;;;;10.86;100.00;99012.34;5100944;28;20032;-76
2022/10/29 01:13:23;;;;;;;1999.90;999.90;;;;;;;10.84;100.00;99004.38;5096344;28;20615;-75
2022/10/29 01:16:05;;;;;;;1999.90;999.90;;;;;;;10.90;100.00;99003.31;5107128;28;20072;-75
2022/10/29 01:18:59;;;;;;;1999.90;999.90;;;;;;;10.88;100.00;99002.75;5099415;28;20035;-75
2022/10/29 01:21:39;;;;;;;1999.90;999.90;;;;;;;10.93;100.00;99000.03;5098712;28;20027;-74
2022/10/29 01:24:41;;;;;;;1999.90;999.90;;;;;;;10.98;100.00;98999.22;5094816;28;20127;-75
2022/10/29 01:27:58;;;;;;;1999.90;999.90;;;;;;;10.99;100.00;98995.41;5096389;28;20040;-75
2022/10/29 01:31:02;;;;;;;1999.90;999.90;;;;;;;10.99;100.00;98996.22;5060354;28;20067;-76
2022/10/29 01:33:36;;;;;;;1999.90;999.90;;;;;;;11.00;100.00;98992.38;5094158;28;20024;-74
2022/10/29 01:36:15;;;;;;;1999.90;999.90;;;;;;;10.99;100.00;98996.22;5094471;28;20339;-75
2022/10/29 01:38:57;;;;;;;1999.90;999.90;;;;;;;10.96;100.00;98994.03;5076133;28;20077;-77
2022/10/29 01:41:58;;;;;;;1999.90;999.90;;;;;;;10.96;100.00;98995.94;5094796;28;20055;-75
2022/10/29 01:44:42;;;;;;;1999.90;999.90;;;;;;;10.96;100.00;98990.47;5093436;28;20568;-74
2022/10/29 01:47:23;;;;;;;1999.90;999.90;;;;;;;11.00;100.00;98991.53;5094538;28;20035;-74
2022/10/29 01:49:58;;;;;;;1999.90;999.90;;;;;;;10.88;100.00;98989.06;5094320;28;20504;-74
2022/10/29 01:52:27;;;;;;;1999.90;999.90;;;;;;;10.84;100.00;98989.91;5076154;28;20089;-76
2022/10/29 01:54:53;;;;;;;1999.90;999.90;;;;;;;10.86;100.00;98984.97;5093951;28;20036;-76
2022/10/29 01:57:24;;;;;;;1999.90;999.90;;;;;;;10.82;100.00;98983.88;5094137;28;20027;-75
2022/10/29 01:59:51;;;;;;;1999.90;999.90;;;;;;;10.73;100.00;98973.47;5094093;28;20035;-75
2022/10/29 02:02:31;;;;;;;1999.90;999.90;;;;;;;10.70;100.00;98976.75;5093946;28;20540;-75
2022/10/29 02:05:00;;;;;;;1999.90;999.90;;;;;;;10.68;100.00;98973.44;5076537;28;20032;-75
2022/10/29 02:07:48;;;;;;;1999.90;999.90;;;;;;;10.65;100.00;98971.25;5101363;28;20172;-75
2022/10/29 02:10:38;;;;;;;1999.90;999.90;;;;;;;10.62;100.00;98976.44;5078386;28;20028;-74
2022/10/29 02:13:03;;;;;;;1999.90;999.90;;;;;;;10.66;100.00;98964.69;5094026;28;20069;-76
2022/10/29 02:15:41;;;;;;;1999.90;999.90;;;;;;;10.70;100.00;98965.81;5093961;28;20415;-77
2022/10/29 02:18:07;;;;;;;1999.90;999.90;;;;;;;10.64;100.00;98966.06;5094240;28;20105;-75
2022/10/29 02:20:33;;;;;;;1999.90;999.90;;;;;;;10.63;100.00;98969.88;5098549;28;20031;-77
2022/10/29 02:22:59;;;;;;;1999.90;999.90;;;;;;;10.72;100.00;98969.06;5098784;28;20032;-76
2022/10/29 02:25:24;;;;;;;1999.90;999.90;;;;;;;10.70;100.00;98970.44;5099425;28;20024;-76
2022/10/29 02:27:50;;;;;;;1999.90;999.90;;;;;;;10.74;100.00;98960.59;5094539;28;20081;-75
2022/10/29 02:30:16;;;;;;;1999.90;999.90;;;;;;;10.79;100.00;98968.81;5093509;28;20078;-74
2022/10/29 02:32:41;;;;;;;1999.90;999.90;;;;;;;10.79;100.00;98957.03;5092382;28;20023;-76
2022/10/29 02:35:07;;;;;;;1999.90;999.90;;;;;;;10.78;100.00;98969.91;5093759;28;20092;-73
2022/10/29 02:37:33;;;;;;;1999.90;999.90;;;;;;;10.74;100.00;98961.41;5095458;28;20020;-75
2022/10/29 02:39:58;;;;;;;1999.90;999.90;;;;;;;10.81;100.00;98954.88;5096032;28;20031;-74
2022/10/29 02:42:24;;;;;;;1999.90;999.90;;;;;;;10.80;100.00;98956.78;5095181;28;20062;-76
2022/10/29 02:44:49;;;;;;;1999.90;999.90;;;;;;;10.77;100.00;98958.13;5094482;28;20024;-76
2022/10/29 02:47:15;;;;;;;1999.90;999.90;;;;;;;10.77;100.00;98960.84;5093469;28;20028;-74
2022/10/29 02:49:40;;;;;;;1999.90;999.90;;;;;;;10.72;100.00;98952.66;5093245;28;20020;-77
2022/10/29 02:52:05;;;;;;;1999.90;999.90;;;;;;;10.69;100.00;98953.19;5093086;28;20016;-75
2022/10/29 02:54:30;;;;;;;1999.90;999.90;;;;;;;10.70;100.00;98956.75;5075167;28;20107;-75
2022/10/29 02:56:56;;;;;;;1999.90;999.90;;;;;;;10.72;100.00;98968.25;5093039;28;20085;-74
2022/10/29 02:59:21;;;;;;;1999.90;999.90;;;;;;;10.73;100.00;98965.25;5092982;28;20032;-76
2022/10/29 03:01:47;;;;;;;1999.90;999.90;;;;;;;10.74;100.00;98963.34;5092804;28;20061;-75
2022/10/29 03:04:12;;;;;;;1999.90;999.90;;;;;;;10.73;100.00;98948.00;5092672;28;20051;-76
2022/10/29 03:06:38;;;;;;;1999.90;999.90;;;;;;;10.74;100.00;98950.47;5074694;28;20431;-75
2022/10/29 03:09:03;;;;;;;1999.90;999.90;;;;;;;10.72;100.00;98958.13;5109627;28;20035;-74
2022/10/29 03:11:29;;;;;;;1999.90;999.90;;;;;;;10.75;100.00;98954.03;5112993;28;20368;-75
2022/10/29 03:13:54;;;;;;;1999.90;999.90;;;;;;;10.75;100.00;98952.13;5094638;28;20169;-73
2022/10/29 03:16:20;;;;;;;1999.90;999.90;;;;;;;10.67;100.00;98952.66;5114586;28;20047;-75
2022/10/29 03:18:45;;;;;;;1999.90;999.90;;;;;;;10.66;100.00;98958.38;5113096;28;20734;-76
2022/10/29 03:21:10;;;;;;;1999.90;999.90;;;;;;;10.63;100.00;98956.19;5096246;28;20041;-74
2022/10/29 03:23:35;;;;;;;1999.90;999.90;;;;;;;10.67;100.00;98962.78;5074409;28;20186;-74
2022/10/29 03:26:01;;;;;;;1999.90;999.90;;;;;;;10.75;100.00;98962.22;5092626;28;20476;-76
2022/10/29 03:28:27;;;;;;;1999.90;999.90;;;;;;;10.80;100.00;98958.69;5091929;28;20027;-74
2022/10/29 03:30:52;;;;;;;1999.90;999.90;;;;;;;10.75;100.00;98960.31;5092413;28;20028;-77
2022/10/29 03:33:18;;;;;;;1999.90;999.90;;;;;;;10.71;100.00;98970.16;5092330;28;20423;-74
2022/10/29 03:35:43;;;;;;;1999.90;999.90;;;;;;;10.69;100.00;98968.78;5074310;28;20028;-76
2022/10/29 03:38:09;;;;;;;1999.90;999.90;;;;;;;10.75;100.00;98971.28;5092398;28;20032;-74
2022/10/29 03:40:34;;;;;;;1999.90;999.90;;;;;;;10.74;100.00;98975.09;5092653;28;20032;-75
2022/10/29 03:42:59;;;;;;;1999.90;999.90;;;;;;;10.72;100.00;98973.72;5091035;28;20040;-76
2022/10/29 03:45:25;;;;;;;1999.90;999.90;;;;;;;10.72;100.00;98966.34;5091966;28;20472;-75
2022/10/29 03:47:50;;;;;;;1999.90;999.90;;;;;;;10.68;100.00;98967.97;5096276;28;20387;-75
2022/10/29 03:50:16;;;;;;;1999.90;999.90;;;;;;;10.61;100.00;98969.34;5082781;28;20468;-76
2022/10/29 03:52:41;;;;;;;1999.90;999.90;;;;;;;10.53;100.00;98976.16;5095205;28;20024;-74
2022/10/29 03:55:07;;;;;;;1999.90;999.90;;;;;;;10.48;100.00;98962.47;5099853;28;20101;-75
2022/10/29 03:57:32;;;;;;;1999.90;999.90;;;;;;;10.45;100.00;98968.47;5101163;28;20082;-75
2022/10/29 03:59:59;;;;;;;1999.90;999.90;;;;;;;10.40;100.00;98960.25;5103959;28;20065;-75
2022/10/29 04:02:25;;;;;;;1999.90;999.90;;;;;;;10.33;100.00;98965.16;5100841;28;20059;-74
2022/10/29 04:04:53;;;;;;;1999.90;999.90;;;;;;;10.35;100.00;98962.97;5102165;28;20481;-75
2022/10/29 04:07:19;;;;;;;1999.90;999.90;;;;;;;10.31;100.00;98964.59;5102070;28;20077;-76
2022/10/29 04:09:44;;;;;;;1999.90;999.90;;;;;;;10.38;100.00;98961.59;5101406;28;20027;-75
2022/10/29 04:12:09;;;;;;;1999.90;999.90;;;;;;;10.51;100.00;98966.56;5104867;28;20036;-76
2022/10/29 04:14:34;;;;;;;1999.90;999.90;;;;;;;10.54;100.00;98957.81;5100112;28;20477;-75
2022/10/29 04:17:00;;;;;;;1999.90;999.90;;;;;;;10.61;100.00;98961.13;5091968;28;20024;-74
2022/10/29 04:19:25;;;;;;;1999.90;999.90;;;;;;;10.60;100.00;98964.94;5109719;28;20458;-76
2022/10/29 04:21:51;;;;;;;1999.90;999.90;;;;;;;10.59;100.00;98964.13;5099547;28;20024;-75
2022/10/29 04:24:16;;;;;;;1999.90;999.90;;;;;;;10.63;100.00;98965.22;5104965;28;20523;-76
2022/10/29 04:26:42;;;;;;;1999.90;999.90;;;;;;;10.60;100.00;98964.94;5111345;28;20085;-74
2022/10/29 04:29:07;;;;;;;1999.90;999.90;;;;;;;10.59;100.00;98961.38;5100358;28;20028;-75
2022/10/29 04:31:33;;;;;;;1999.90;999.90;;;;;;;10.64;100.00;98961.41;5096264;28;20038;-77
2022/10/29 04:33:58;;;;;;;1999.90;999.90;;;;;;;10.60;100.00;98963.03;5085926;28;20114;-78
2022/10/29 04:36:23;;;;;;;1999.90;999.90;;;;;;;10.63;100.00;98965.22;5110797;28;20026;-75
2022/10/29 04:38:49;;;;;;;1999.90;999.90;;;;;;;10.58;100.00;98967.97;5098684;28;20024;-76
2022/10/29 04:41:15;;;;;;;1999.90;999.90;;;;;;;10.61;100.00;98961.94;5095431;28;20044;-75
2022/10/29 04:43:40;;;;;;;1999.90;999.90;;;;;;;10.62;100.00;98973.69;5105669;28;20430;-75
2022/10/29 04:46:05;;;;;;;1999.90;999.90;;;;;;;10.64;100.00;98968.78;5089524;28;20024;-76
2022/10/29 04:48:31;;;;;;;1999.90;999.90;;;;;;;10.59;100.00;98975.06;5100187;28;20456;-76
2022/10/29 04:50:56;;;;;;;1999.90;999.90;;;;;;;10.56;100.00;98967.41;5091079;28;20047;-76
2022/10/29 04:53:21;;;;;;;1999.90;999.90;;;;;;;10.51;100.00;98961.94;5109357;28;20043;-77
2022/10/29 04:55:47;;;;;;;1999.90;999.90;;;;;;;10.31;100.00;98966.50;5109604;28;20457;-76
2022/10/29 04:58:17;;;;;;;1999.90;999.90;;;;;;;10.13;100.00;98965.03;5109819;28;20059;-77
2022/10/29 05:00:43;;;;;;;1999.90;999.90;;;;;;;10.18;100.00;98954.97;5092903;28;20116;-81
2022/10/29 05:03:09;;;;;;;1999.90;999.90;;;;;;;10.20;100.00;98955.56;5112480;28;20144;-80
2022/10/29 05:05:38;;;;;;;1999.90;999.90;;;;;;;10.19;100.00;98958.53;5113139;28;20410;-80
2022/10/29 05:08:05;;;;;;;1999.90;999.90;;;;;;;10.22;100.00;98958.00;5093711;28;20047;-80
2022/10/29 05:10:33;;;;;;;1999.90;999.90;;;;;;;10.24;100.00;98965.94;5112399;28;20031;-78
2022/10/29 05:13:00;;;;;;;1999.90;999.90;;;;;;;10.29;100.00;98957.75;5093358;28;20036;-79
2022/10/29 05:15:26;;;;;;;1999.90;999.90;;;;;;;10.25;100.00;98957.47;5111648;28;20476;-79
2022/10/29 05:17:52;;;;;;;1999.90;999.90;;;;;;;10.28;100.00;98962.41;5113020;28;20024;-78
2022/10/29 05:20:17;;;;;;;1999.90;999.90;;;;;;;10.32;100.00;98968.16;5105348;28;20115;-74
2022/10/29 05:22:43;;;;;;;1999.90;999.90;;;;;;;10.33;100.00;98965.16;5099769;28;20059;-79
2022/10/29 05:25:08;;;;;;;1999.90;999.90;;;;;;;10.28;100.00;98965.13;5090689;28;20040;-76
2022/10/29 05:27:33;;;;;;;1999.90;999.90;;;;;;;10.21;100.00;98970.03;5108920;28;20091;-80
2022/10/29 05:29:58;;;;;;;1999.90;999.90;;;;;;;10.20;100.00;98958.28;5112766;28;20069;-78
2022/10/29 05:32:24;;;;;;;1999.90;999.90;;;;;;;10.26;100.00;98961.84;5094680;28;20408;-78
2022/10/29 05:34:49;;;;;;;1999.90;999.90;;;;;;;10.28;100.00;98956.09;5114919;28;20042;-75
2022/10/29 05:37:14;;;;;;;1999.90;999.90;;;;;;;10.33;100.00;98958.88;5114154;28;20118;-82
2022/10/29 05:39:40;;;;;;;1999.90;999.90;;;;;;;10.34;100.00;98958.59;5119939;28;20409;-85
2022/10/29 05:42:06;;;;;;;1999.90;999.90;;;;;;;10.41;100.00;98959.16;5113208;28;20037;-75
2022/10/29 05:44:31;;;;;;;1999.90;999.90;;;;;;;10.47;100.00;98966.28;5110649;28;20041;-74
2022/10/29 05:46:56;;;;;;;1999.90;999.90;;;;;;;10.43;100.00;98958.91;5092161;28;20028;-75
2022/10/29 05:49:22;;;;;;;1999.90;999.90;;;;;;;10.42;100.00;98966.28;5094642;28;20464;-76
2022/10/29 05:51:47;;;;;;;1999.90;999.90;;;;;;;10.41;100.00;98967.38;5112437;28;20027;-81
2022/10/29 05:54:12;;;;;;;1999.90;999.90;;;;;;;10.38;100.00;98978.00;5117792;28;20876;-85
2022/10/29 05:56:37;;;;;;;1999.90;999.90;;;;;;;10.36;100.00;98975.56;5113418;28;20019;-77
2022/10/29 05:59:03;;;;;;;1999.90;999.90;;;;;;;10.47;100.00;98974.50;5094257;28;20081;-77
2022/10/29 06:01:28;;;;;;;1999.90;999.90;;;;;;;10.41;100.00;98972.84;5110984;28;20488;-78
2022/10/29 06:03:53;;;;;;;1999.90;999.90;;;;;;;10.40;100.00;98976.66;5110411;28;20550;-79
2022/10/29 06:06:19;;;;;;;1999.90;999.90;;;;;;;10.46;100.00;98983.78;5111389;28;20167;-77
2022/10/29 06:08:44;;;;;;;1999.90;999.90;;;;;;;10.46;100.00;98986.50;5114216;28;20188;-80
2022/10/29 06:11:09;;;;;;;1999.90;999.90;;;;;;;10.39;100.00;98979.66;5114544;28;20392;-79
2022/10/29 06:13:35;;;;;;;1999.90;999.90;;;;;;;10.34;100.00;98991.41;5098296;28;20020;-77
2022/10/29 06:16:01;;;;;;;1999.90;999.90;;;;;;;10.41;100.00;98988.41;5098957;28;20468;-81
2022/10/29 06:18:26;;;;;;;1999.90;999.90;;;;;;;10.42;100.00;98982.69;5081089;28;20036;-74
2022/10/29 06:20:52;;;;;;;1999.90;999.90;;;;;;;10.57;100.00;98985.47;5093540;28;20021;-76
2022/10/29 06:23:18;;;;;;;1999.90;999.90;;;;;;;10.64;100.00;98994.25;5075126;28;20028;-75
2022/10/29 06:25:43;;;;;;;1999.90;999.90;;;;;;;10.65;100.00;98984.91;5076416;28;20029;-80
2022/10/29 06:28:17;;;;;;;1999.90;999.90;;;;;;;10.70;100.00;98993.16;5102058;28;20035;-80
2022/10/29 06:30:48;;;;;;;1999.90;999.90;;;;;;;10.52;100.00;98990.94;5097028;28;20050;-75
2022/10/29 06:33:13;;;;;;;1999.90;999.90;;;;;;;10.50;100.00;98984.06;5075321;28;20408;-76
2022/10/29 06:35:39;;;;;;;1999.90;999.90;;;;;;;10.55;100.00;98987.66;5093667;28;20106;-76
2022/10/29 06:38:04;;;;;;;1999.90;999.90;;;;;;;10.36;100.00;98989.25;5075765;28;20173;-79
2022/10/29 06:40:30;;;;;;;1999.90;999.90;;;;;;;10.32;100.00;98985.38;5095368;28;20015;-79
2022/10/29 06:43:00;;;;;;;1999.90;999.90;;;;;;;10.51;100.00;98988.44;5093645;28;20052;-79
2022/10/29 06:45:25;;;;;;;1999.90;999.90;;;;;;;10.64;100.00;98988.78;5093714;28;20028;-78
2022/10/29 06:47:50;;;;;;;1999.90;999.90;;;;;;;10.72;100.00;98990.97;5093233;28;20089;-77
2022/10/29 06:50:16;;;;;;;1999.90;999.90;;;;;;;10.72;100.00;98993.69;5093799;28;20067;-78
2022/10/29 06:52:41;;;;;;;1999.90;999.90;;;;;;;10.75;100.00;98990.41;5096289;28;20076;-77
2022/10/29 06:55:07;;;;;;;1999.90;999.90;;;;;;;10.60;100.00;98995.88;5114582;28;20030;-83
2022/10/29 06:57:32;;;;;;;1999.90;999.90;;;;;;;10.72;100.00;98995.59;5121560;28;20053;-80
2022/10/29 06:59:58;;;;;;;1999.90;999.90;;;;;;;10.68;100.00;98995.31;5119971;28;20459;-76
2022/10/29 07:02:23;;;;;;;1999.90;999.90;;;;;;;10.70;100.00;98998.63;5114067;28;20044;-82
2022/10/29 07:04:49;;;;;;;1999.90;999.90;;;;;;;10.70;100.00;99000.53;5114198;28;20096;-84
2022/10/29 07:07:15;;;;;;;1999.90;999.90;;;;;;;10.65;100.00;98998.59;5112613;28;20024;-77
2022/10/29 07:09:41;;;;;;;1999.90;999.90;;;;;;;10.61;100.00;98997.53;5112573;28;20106;-74
2022/10/29 07:12:08;;;;;;;1999.90;999.90;;;;;;;10.54;100.00;98994.22;5114159;28;20016;-79
2022/10/29 07:14:33;;;;;;;1999.90;999.90;;;;;;;10.68;100.00;98998.06;5110434;28;20568;-79
2022/10/29 07:16:59;;;;;;;1999.90;999.90;;;;;;;10.79;100.00;99011.78;5093362;28;20099;-77
2022/10/29 07:19:24;;;;;;;1999.90;999.90;;;;;;;10.80;100.00;99013.44;5076898;28;20063;-78
2022/10/29 07:21:49;;;;;;;1999.90;999.90;;;;;;;10.75;100.00;99009.59;5076288;28;20481;-79
2022/10/29 07:24:16;;;;;;;1999.90;999.90;;;;;;;10.71;100.00;99013.94;5076249;28;20059;-76
2022/10/29 07:26:42;;;;;;;1999.90;999.90;;;;;;;10.77;100.00;99013.97;5094524;28;20077;-76
2022/10/29 07:29:07;;;;;;;1999.90;999.90;;;;;;;10.76;100.00;99015.88;5092626;28;20016;-75
2022/10/29 07:31:32;;;;;;;1999.90;999.90;;;;;;;10.93;100.00;99012.91;5093365;28;20093;-77
2022/10/29 07:33:58;;;;;;;1999.90;999.90;;;;;;;11.11;100.00;99012.38;5092589;28;20024;-84
2022/10/29 07:36:23;;;;;;;1999.90;999.90;;;;;;;11.16;100.00;99013.19;5092177;28;20461;-74
2022/10/29 07:38:48;;;;;;;1999.90;999.90;;;;;;;11.26;100.00;99006.91;5092005;28;20106;-74
2022/10/29 07:41:14;;;;;;;1999.90;999.90;;;;;;;11.34;100.00;99009.09;5074429;28;20064;-80
2022/10/29 07:43:39;;;;;;;1999.90;999.90;;;;;;;11.32;100.00;99016.75;5073776;28;20030;-74
2022/10/29 07:46:05;;;;;;;1999.90;999.90;;;;;;;11.33;100.00;99007.47;5091965;28;20035;-75
2022/10/29 07:48:30;;;;;;;1999.90;999.90;;;;;;;11.45;100.00;99004.44;5114510;28;20015;-84
2022/10/29 07:50:59;;;;;;;1999.90;999.90;;;;;;;11.08;100.00;99013.75;5119276;28;20048;-84
2022/10/29 07:53:24;;;;;;;1999.90;999.90;;;;;;;11.11;100.00;99015.13;5118891;28;20039;-81
2022/10/29 07:55:54;;;;;;;1999.90;999.90;;;;;;;11.24;100.00;99014.59;5118595;28;20024;-86
2022/10/29 07:58:20;;;;;;;1999.90;999.90;;;;;;;11.16;100.00;99015.94;5127266;28;20038;-87
2022/10/29 08:00:45;;;;;;;1999.90;999.90;;;;;;;11.22;100.00;99011.28;5100629;28;20015;-76
2022/10/29 08:03:11;;;;;;;1999.90;999.90;;;;;;;11.20;100.00;99018.94;5112177;28;20050;-76
2022/10/29 08:05:36;;;;;;;1999.90;999.90;;;;;;;11.28;100.00;99010.19;5096151;28;20795;-77
2022/10/29 08:08:02;;;;;;;1999.90;999.90;;;;;;;11.48;100.00;99010.19;5114019;28;20055;-81
2022/10/29 08:10:29;;;;;;;1999.90;999.90;;;;;;;11.76;100.00;99012.38;5114243;28;20068;-76
2022/10/29 08:12:57;;;;;;;1999.90;999.90;;;;;;;11.99;100.00;99005.47;5093740;28;20028;-76
2022/10/29 08:15:22;;;;;;;1999.90;999.90;;;;;;;12.04;100.00;99012.84;5104218;28;20036;-76
2022/10/29 08:17:48;;;;;;;1999.90;999.90;;;;;;;11.99;100.00;99015.63;5092914;28;20051;-75
2022/10/29 08:20:15;;;;;;;1999.90;999.90;;;;;;;12.03;100.00;99009.28;5093119;28;20508;-75
2022/10/29 08:22:40;;;;;;;1999.90;999.90;;;;;;;11.83;100.00;99006.63;5091381;28;20031;-76
2022/10/29 08:25:06;;;;;;;1999.90;999.90;;;;;;;11.91;100.00;99007.94;5091051;28;20119;-74
2022/10/29 08:27:31;;;;;;;1999.90;999.90;;;;;;;11.93;100.00;99014.00;5073190;28;20047;-77
2022/10/29 08:29:56;;;;;;;1999.90;999.90;;;;;;;11.93;100.00;99005.78;5090830;28;20058;-74
2022/10/29 08:32:22;;;;;;;1999.90;999.90;;;;;;;12.24;100.00;99010.06;5090844;28;20055;-75
2022/10/29 08:34:47;;;;;;;1999.90;999.90;;;;;;;12.18;100.00;99002.94;5091514;28;20032;-75
2022/10/29 08:37:12;;;;;;;1999.90;999.90;;;;;;;11.87;100.00;99001.41;5094774;28;20032;-76
2022/10/29 08:39:38;;;;;;;1999.90;999.90;;;;;;;11.71;100.00;98986.91;5096743;28;20032;-76
2022/10/29 08:42:24;;;;;;;1999.90;999.90;;;;;;;11.74;100.00;98995.41;5091731;28;20111;-76
2022/10/29 08:44:56;;;;;;;1999.90;999.90;;;;;;;11.86;100.00;98992.34;5072955;28;20176;-75
2022/10/29 08:47:22;;;;;;;1999.90;999.90;;;;;;;12.12;100.00;98993.91;5090569;28;20035;-74
2022/10/29 08:50:16;;;;;;;1999.90;999.90;;;;;;;12.35;100.00;98995.19;5090631;28;20983;-75
2022/10/29 08:52:43;;;;;;;1999.90;999.90;;;;;;;12.24;100.00;98996.34;5090530;28;20031;-76
2022/10/29 08:55:15;;;;;;;1999.90;999.90;;;;;;;12.07;100.00;98999.41;5090739;28;20035;-75
2022/10/29 08:57:58;;;;;;;1999.90;999.90;;;;;;;12.09;100.00;98996.41;5090548;28;20024;-76
2022/10/29 09:00:33;;;;;;;1999.90;999.90;;;;;;;12.26;100.00;99007.84;5090861;28;20103;-75
2022/10/29 09:03:00;;;;;;;1999.90;999.90;;;;;;;12.28;100.00;99009.19;5090701;28;20086;-76
2022/10/29 09:05:52;;;;;;;1999.90;999.90;;;;;;;12.21;100.00;99002.38;5090886;28;20505;-74
2022/10/29 09:09:28;;;;;;;1999.90;999.90;;;;;;;12.48;100.00;98997.31;5077772;28;20443;-76
2022/10/29 09:12:02;;;;;;;1999.90;999.90;;;;;;;12.49;100.00;99001.72;4989546;28;20046;-75
2022/10/29 09:15:12;;;;;;;1999.90;999.90;;;;;;;12.71;100.00;98991.19;4988945;28;20546;-76
2022/10/29 09:17:42;;;;;;;1999.90;999.90;;;;;;;12.23;100.00;98992.78;5084453;28;20044;-76
2022/10/29 09:20:36;;;;;;;1999.90;999.90;;;;;;;12.86;100.00;98995.75;5088934;28;20028;-76
2022/10/29 09:23:20;;;;;;;1999.90;999.90;;;;;;;13.34;100.00;98983.06;5076411;28;20459;-76
2022/10/29 09:25:54;;;;;;;1999.90;999.90;;;;;;;13.37;100.00;98988.78;5089151;28;20036;-76
2022/10/29 09:28:54;;;;;;;1999.90;999.90;;;;;;;13.30;100.00;98987.47;5104012;28;20016;-76
2022/10/29 09:31:30;;;;;;;1999.90;999.90;;;;;;;13.50;100.00;98990.03;5109555;28;20019;-74
2022/10/29 09:34:01;;;;;;;1999.90;999.90;;;;;;;13.89;100.00;98995.44;5110774;28;20092;-76
2022/10/29 09:36:30;;;;;;;1999.90;999.90;;;;;;;14.28;100.00;98998.03;5110129;28;20030;-76
2022/10/29 09:39:01;;;;;;;1999.90;999.90;;;;;;;14.37;100.00;98999.06;5092761;28;20032;-76
2022/10/29 09:41:30;;;;;;;1999.90;999.90;;;;;;;14.16;100.00;98997.63;5113682;28;20407;-76
2022/10/29 09:44:05;;;;;;;1999.90;999.90;;;;;;;14.24;100.00;98996.97;5114216;28;20043;-75
2022/10/29 09:46:30;;;;;;;1999.90;999.90;;;;;;;14.62;100.00;98992.41;5114634;28;20096;-76
2022/10/29 09:49:29;;;;;;;1999.90;999.90;;;;;;;14.49;100.00;98993.94;5114091;28;20031;-75
2022/10/29 09:52:15;;;;;;;1999.90;999.90;;;;;;;14.97;100.00;98983.63;5096034;28;20753;-76
2022/10/29 09:54:40;;;;;;;1999.90;999.90;;;;;;;15.23;100.00;98978.53;5096308;28;20027;-74
2022/10/29 09:57:15;;;;;;;1999.90;999.90;;;;;;;15.26;100.00;98975.16;5109060;28;20050;-76
2022/10/29 09:59:47;;;;;;;1999.90;999.90;;;;;;;15.43;100.00;98976.25;5114228;28;20090;-76
2022/10/29 10:02:45;;;;;;;1999.90;999.90;;;;;;;15.43;100.00;98975.44;5095706;28;20194;-76
2022/10/29 10:05:14;;;;;;;1999.90;999.90;;;;;;;15.92;100.00;98972.09;5102983;28;20067;-75
2022/10/29 10:07:40;;;;;;;1999.90;999.90;;;;;;;16.07;100.00;98966.28;5107338;28;20047;-76
2022/10/29 10:10:19;;;;;;;1999.90;999.90;;;;;;;16.48;100.00;98960.72;5093877;28;20017;-77
2022/10/29 10:12:47;;;;;;;1999.90;999.90;;;;;;;16.69;100.00;98961.97;5106962;28;20541;-73
2022/10/29 10:15:17;;;;;;;1999.90;999.90;;;;;;;16.66;100.00;98965.38;5112214;28;20019;-75
2022/10/29 10:18:06;;;;;;;1999.90;999.90;;;;;;;17.60;100.00;98957.81;5093404;28;20016;-76
2022/10/29 10:20:39;;;;;;;1999.90;999.90;;;;;;;18.42;100.00;98965.50;5075218;28;20038;-74
2022/10/29 10:23:22;;;;;;;1999.90;999.90;;;;;;;18.41;100.00;98971.41;5093410;28;20401;-73
2022/10/29 10:25:48;;;;;;;1999.90;999.90;;;;;;;19.11;100.00;98966.47;5091478;28;20059;-75
2022/10/29 10:28:34;;;;;;;1999.90;999.90;;;;;;;19.98;100.00;98959.66;5091678;28;20084;-73
2022/10/29 10:31:14;;;;;;;1999.90;999.90;;;;;;;19.90;100.00;98954.94;5111989;28;20046;-73
2022/10/29 10:33:53;;;;;;;1999.90;999.90;;;;;;;20.07;100.00;98949.34;5113345;28;20508;-72
2022/10/29 10:36:28;;;;;;;1999.90;999.90;;;;;;;19.98;100.00;98943.00;5094910;28;20057;-72
2022/10/29 10:38:59;;;;;;;1999.90;999.90;;;;;;;20.37;100.00;98943.81;5113253;28;20031;-74
2022/10/29 10:41:34;;;;;;;1999.90;999.90;;;;;;;21.37;92.64;98941.78;5113377;28;20027;-73
2022/10/29 10:44:02;;;;;;;1999.90;999.90;;;;;;;21.17;90.79;98935.13;5113101;28;20035;-72
2022/10/29 10:46:32;;;;;;;1999.90;999.90;;;;;;;21.40;89.80;98945.84;5115897;28;20024;-74
2022/10/29 10:49:12;;;;;;;1999.90;999.90;;;;;;;21.65;87.15;98945.59;5119282;28;20024;-74
2022/10/29 10:51:43;;;;;;;1999.90;999.90;;;;;;;21.74;84.73;98932.41;5094902;28;20392;-73
2022/10/29 10:54:41;;;;;;;1999.90;999.90;;;;;;;20.79;87.46;98929.66;5113390;28;20031;-73
2022/10/29 10:57:09;;;;;;;1999.90;999.90;;;;;;;21.17;82.88;98923.97;5113176;28;20036;-71
2022/10/29 11:00:03;;;;;;;1999.90;999.90;;;;;;;20.54;85.14;98921.50;5113791;28;20038;-72